Terminal Aerodrome Forecast
Issued by NWS

Current Version | Previous Version | Text Only | Print | Product List | Glossary Off
Versions: 1 2 3 4 5 6 7 8 9 10 11 12 13 14 15 16

513
FTUS41 KPBZ 140520
TAFMGW
TAF
KMGW 140520Z 1406/1506 15004KT P6SM SKC
     FM141600 21005KT P6SM FEW035=

USA.gov is the U.S. government's official web portal to all federal, state and local government web resources and services.